Aérodrome :
LOGIN :

S'inscrire | Disclaimer

   EN    FR    IT 

 










Légende :    VFR   VFR Marginal   IFR   IFR Intensif   IFR Très Intensif
Visi : 
Plafond : 
>= 8 km
>= 3000ft
5 à 8 km
1000 à 3000 ft
1500m à 5 km
500 à 1000 ft
800 à 1500m
200 à 500 ft
< 800m
< 200 ft
Symboles :   Orages  Brouillard  Fortes neiges  Fortes précipitations  Vent > 20 kt
SIGMETs :   Divers  Orages  Givrage  Turbulence  Onde Orograph.  Cendres Volcan.






- Altitude de l'aérodrome : 131 ft
- Code IATA : TLL


EETN - Talinn

DERNIER METAR :
  • 280020Z AUTO 27008KT CAVOK 10/09 Q1020

METARs EXPIRÉS :
  • 272350Z AUTO 27006KT CAVOK 11/09 Q1020
  • 272320Z AUTO 26009KT CAVOK 11/09 Q1021
  • 272250Z AUTO 26008KT CAVOK 11/08 Q1021
  • 272220Z AUTO 25008KT CAVOK 11/08 Q1021
  • 272150Z AUTO 26009KT CAVOK 11/08 Q1021

TAF TAF EETN
Valide du 28 à 00h jusqu'au 29 à 00h UTC


272327Z 2800/2824 26008KT 9999 SCT030
TEMPO 2800/2804 3000 SHRA BR BKN005 SCT020CB
PROB30
TEMPO 2802/2806 TSRA
BECMG 2803/2805 33012KT
PROB40
TEMPO 2804/2808 BKN012 SCT025CB



MET'MAP, la Météo Aéronautique d'un coup d'oeil ! - Copyright ORBIFLY Décembre 2007 - Disclaimer

ORBIFLY MET'MAP TEAM :

Programmation & Développement : Alexandra Zaïnal
Sur une idée originale de : Baudouin d'Aumeries
Assistance à la programmation : Marc-Olivier Méhu
Soutien technique & logistique : Manuel Goepfert

Contact : metmap@orbifly.com




SOURCES & CREDITS :

   NOAA